Sussex, Wyoming
Current Conditions -  °F | °C
As of 2:53 AM on Tuesday 21 Oct 2014 (Local Time) from KBYG Reporting Station
Clear Clear  
Wind Chill: 47°   Ceiling: Unl
Heat Index: 49°   Visibility: 10mi
Dew Point: 26°   Wind: 6mph
Humidity: 41%   Direction: 260°W
Pressure: 29.87"   Gusts: NA
Location:  43.8063°N, 106.549°W
Report Text: KBYG 210853Z AUTO 26005KT 10SM CLR 09/M03 A2987 RMK AO2 SLP066 T00941033 58006
Loading
Personal Weather Stations






























Interactive Weather Map
Tropical Storm Tracking
New forecast layout! Learn more

10-Day Weather Forecast

Advertisements
Track Severe Weather on mobile